Time;durP1;ratioP1;P1;durP2;ratioP2;P2;SDS_P1;SDS_P2;PMS_P1;PMS_P2;Temp;Humidity;BMP_temperature;BMP_pressure;BME280_temperature;BME280_humidity;BME280_pressure;Samples;Min_cycle;Max_cycle;Signal;HPM_P1;HPM_P2
2021/07/15 00:00:07;;;;;;;10.35;9.30;;;;;;;18.66;91.00;100359.22;5014880;28;20053;-69
2021/07/15 00:02:34;;;;;;;11.02;9.88;;;;;;;18.62;91.43;100355.19;5020053;28;20059;-68
2021/07/15 00:05:09;;;;;;;10.77;9.75;;;;;;;18.42;92.44;100356.28;5025019;28;20411;-69
2021/07/15 00:07:36;;;;;;;10.88;9.88;;;;;;;18.35;93.84;100366.66;5032145;28;20111;-70
2021/07/15 00:10:27;;;;;;;10.85;9.95;;;;;;;18.52;92.71;100359.72;5022888;28;20049;-69
2021/07/15 00:12:54;;;;;;;11.63;10.23;;;;;;;18.34;93.26;100364.16;5020498;28;20045;-69
2021/07/15 00:15:24;;;;;;;12.60;10.68;;;;;;;18.27;93.95;100366.56;5030740;28;20049;-68
2021/07/15 00:17:56;;;;;;;10.88;9.88;;;;;;;18.54;92.40;100368.41;5026175;28;20053;-68
2021/07/15 00:20:24;;;;;;;12.10;10.00;;;;;;;18.35;92.77;100361.34;5008054;28;20045;-69
2021/07/15 00:22:52;;;;;;;11.60;10.60;;;;;;;18.36;94.42;100362.19;5030282;28;20240;-69
2021/07/15 00:25:21;;;;;;;11.23;9.80;;;;;;;18.34;95.03;100361.50;4998570;28;20079;-69
2021/07/15 00:27:48;;;;;;;11.73;10.63;;;;;;;18.39;94.51;100351.22;5027078;28;20061;-69
2021/07/15 00:30:16;;;;;;;10.93;9.20;;;;;;;18.56;93.12;100358.44;5016373;28;20056;-69
2021/07/15 00:32:43;;;;;;;10.50;9.40;;;;;;;18.50;92.86;100360.84;5013990;28;20059;-67
2021/07/15 00:35:11;;;;;;;8.98;8.18;;;;;;;18.39;93.00;100362.72;5040784;28;20052;-68
2021/07/15 00:37:41;;;;;;;11.85;8.20;;;;;;;18.46;91.91;100366.50;5039239;28;20580;-68
2021/07/15 00:40:10;;;;;;;10.98;8.68;;;;;;;18.48;92.30;100375.16;5032228;28;20538;-67
2021/07/15 00:42:37;;;;;;;8.57;7.88;;;;;;;18.31;92.43;100372.44;5011682;28;20102;-69
2021/07/15 00:45:07;;;;;;;9.25;8.45;;;;;;;18.21;92.84;100367.16;5036857;28;20422;-69
2021/07/15 00:47:35;;;;;;;8.68;7.88;;;;;;;18.31;93.34;100370.63;5018705;28;20045;-68
2021/07/15 00:50:05;;;;;;;9.32;8.43;;;;;;;18.35;93.33;100376.50;5021455;28;20057;-69
2021/07/15 00:52:33;;;;;;;10.90;8.80;;;;;;;18.09;93.85;100384.28;5027585;28;20472;-68
2021/07/15 00:55:00;;;;;;;8.70;7.95;;;;;;;18.04;94.91;100381.22;5030357;28;20603;-69
2021/07/15 00:57:27;;;;;;;10.38;8.65;;;;;;;17.93;94.81;100391.06;5019136;28;20134;-69
2021/07/15 00:59:54;;;;;;;11.02;9.18;;;;;;;17.74;96.17;100391.06;5030984;28;20148;-69
2021/07/15 01:02:21;;;;;;;8.38;7.57;;;;;;;17.69;97.15;100398.63;5011437;28;20145;-68
2021/07/15 01:04:49;;;;;;;9.55;8.65;;;;;;;17.67;97.10;100396.13;5039165;28;20068;-70
2021/07/15 01:07:16;;;;;;;10.93;9.18;;;;;;;17.84;97.21;100409.72;5039302;28;20152;-70
2021/07/15 01:09:43;;;;;;;10.23;9.20;;;;;;;18.01;96.48;100408.97;5005530;28;20046;-69
2021/07/15 01:12:17;;;;;;;9.13;8.07;;;;;;;17.89;96.24;100400.31;5017933;28;20147;-69
2021/07/15 01:14:56;;;;;;;13.35;8.55;;;;;;;17.77;96.34;100408.59;5012768;28;20081;-69
2021/07/15 01:17:28;;;;;;;8.52;7.78;;;;;;;17.78;96.35;100412.94;5001084;28;20059;-68
2021/07/15 01:20:12;;;;;;;9.52;8.63;;;;;;;17.78;97.41;100421.78;5008203;28;20049;-68
2021/07/15 01:22:58;;;;;;;9.65;7.60;;;;;;;17.56;97.52;100428.22;5005569;28;20156;-68
2021/07/15 01:26:10;;;;;;;8.65;7.75;;;;;;;17.55;97.43;100415.88;5009532;28;20384;-69
2021/07/15 01:29:11;;;;;;;8.57;7.78;;;;;;;17.43;98.27;100396.56;4999539;28;20045;-68
2021/07/15 01:31:41;;;;;;;7.85;6.95;;;;;;;17.58;97.41;100378.34;5006630;28;20531;-68
2021/07/15 01:34:13;;;;;;;8.55;7.68;;;;;;;17.64;96.47;100374.25;4991139;28;20085;-68
2021/07/15 01:36:42;;;;;;;7.65;6.38;;;;;;;17.78;95.34;100373.00;5008302;28;20523;-69
2021/07/15 01:39:10;;;;;;;9.38;6.22;;;;;;;17.78;94.54;100373.00;5015663;28;20062;-69
2021/07/15 01:41:45;;;;;;;9.05;5.72;;;;;;;17.76;94.70;100369.66;5016494;28;20137;-70
2021/07/15 01:44:16;;;;;;;;;;;;;;;17.81;93.58;100367.41;5000435;28;20076;-69
2021/07/15 01:46:43;;;;;;;6.55;5.63;;;;;;;17.90;92.85;100377.19;5019485;28;20306;-69
2021/07/15 01:49:12;;;;;;;6.32;5.30;;;;;;;17.85;93.40;100387.44;5038469;28;20065;-70
2021/07/15 01:51:39;;;;;;;5.85;5.32;;;;;;;17.81;92.84;100388.72;5008479;28;21236;-69
2021/07/15 01:54:08;;;;;;;5.75;5.18;;;;;;;17.78;92.89;100379.16;4993009;28;20053;-69
2021/07/15 01:56:37;;;;;;;5.95;5.35;;;;;;;17.81;93.21;100376.22;5017085;28;20036;-69
2021/07/15 01:59:06;;;;;;;8.93;5.32;;;;;;;17.83;93.32;100370.75;5020139;28;20148;-69
2021/07/15 02:01:34;;;;;;;5.70;4.95;;;;;;;17.77;93.28;100366.00;5019158;28;20396;-69
2021/07/15 02:04:02;;;;;;;7.28;5.07;;;;;;;17.83;92.65;100373.41;5015158;28;20523;-69
2021/07/15 02:06:31;;;;;;;5.90;5.30;;;;;;;17.66;93.83;100369.66;5003431;28;20048;-70
2021/07/15 02:09:01;;;;;;;9.25;5.43;;;;;;;17.66;93.64;100370.47;5012970;28;20140;-68
2021/07/15 02:11:33;;;;;;;5.50;5.00;;;;;;;17.57;94.54;100381.16;5020244;28;20053;-68
2021/07/15 02:14:04;;;;;;;5.97;4.55;;;;;;;17.57;94.67;100381.97;5015790;28;20053;-69
2021/07/15 02:16:34;;;;;;;7.38;5.15;;;;;;;17.45;94.72;100373.28;5010709;28;20396;-68
2021/07/15 02:19:03;;;;;;;5.90;4.85;;;;;;;17.42;95.72;100373.56;5022849;28;20115;-68
2021/07/15 02:21:33;;;;;;;6.18;4.25;;;;;;;17.54;94.18;100373.44;4994798;28;20695;-68
2021/07/15 02:24:01;;;;;;;6.90;5.47;;;;;;;17.68;93.20;100365.84;4996049;28;20162;-70
2021/07/15 02:26:28;;;;;;;5.30;4.72;;;;;;;17.79;92.48;100364.91;4997418;28;20045;-69
2021/07/15 02:28:55;;;;;;;6.95;4.57;;;;;;;17.86;91.60;100362.47;5013978;28;20488;-68
2021/07/15 02:31:48;;;;;;;4.97;4.47;;;;;;;18.04;90.32;100368.75;5011249;28;20148;-69
2021/07/15 02:34:22;;;;;;;8.15;4.38;;;;;;;18.02;90.18;100365.41;4994106;28;20077;-70
2021/07/15 02:36:50;;;;;;;5.78;4.32;;;;;;;18.06;89.90;100364.13;4998537;28;20476;-68
2021/07/15 02:39:17;;;;;;;4.78;4.38;;;;;;;18.01;90.65;100370.84;5011122;28;20159;-68
2021/07/15 02:41:44;;;;;;;4.60;4.15;;;;;;;17.79;91.58;100377.38;4993390;28;20289;-70
2021/07/15 02:44:11;;;;;;;5.97;4.18;;;;;;;17.80;92.24;100379.03;5003073;28;20057;-69
2021/07/15 02:46:39;;;;;;;4.72;4.32;;;;;;;17.78;91.91;100381.00;5012183;28;20067;-69
2021/07/15 02:49:06;;;;;;;8.05;5.28;;;;;;;17.67;92.46;100384.63;5039699;28;20059;-68
2021/07/15 02:51:33;;;;;;;6.97;5.55;;;;;;;17.55;93.39;100386.59;5024698;28;20107;-69
2021/07/15 02:54:02;;;;;;;5.85;5.25;;;;;;;17.57;93.99;100389.13;5026253;28;20428;-70
2021/07/15 02:56:48;;;;;;;8.52;5.63;;;;;;;17.44;95.07;100392.91;5039506;28;20068;-69
2021/07/15 02:59:26;;;;;;;8.90;6.03;;;;;;;17.65;94.15;100387.44;5017942;28;20414;-70
2021/07/15 03:02:04;;;;;;;7.32;6.35;;;;;;;17.77;93.63;100390.81;5033167;28;20068;-69
2021/07/15 03:04:41;;;;;;;10.00;5.72;;;;;;;17.86;92.75;100383.78;4997668;28;20073;-68
2021/07/15 03:07:09;;;;;;;7.78;5.72;;;;;;;17.91;92.78;100395.69;5025489;28;20060;-68
2021/07/15 03:09:38;;;;;;;7.65;6.00;;;;;;;17.93;92.23;100393.72;5007841;28;20073;-69
2021/07/15 03:12:10;;;;;;;6.82;6.07;;;;;;;17.98;91.73;100390.63;5010662;28;20397;-69
2021/07/15 03:14:39;;;;;;;6.53;5.75;;;;;;;17.90;93.09;100390.50;5011114;28;20469;-69
2021/07/15 03:17:11;;;;;;;6.22;5.40;;;;;;;17.78;93.90;100389.81;5018589;28;20050;-69
2021/07/15 03:19:41;;;;;;;9.35;5.45;;;;;;;17.70;94.33;100387.03;5011233;28;20045;-68
2021/07/15 03:22:09;;;;;;;6.47;5.43;;;;;;;17.64;94.34;100385.75;5008432;28;20068;-69
2021/07/15 03:24:41;;;;;;;7.55;5.53;;;;;;;17.74;94.09;100391.06;5012597;28;20136;-69
2021/07/15 03:27:08;;;;;;;8.18;6.28;;;;;;;17.62;95.09;100400.19;4995741;28;20055;-68
2021/07/15 03:29:36;;;;;;;8.77;5.32;;;;;;;17.77;94.87;100397.97;5033001;28;20051;-69
2021/07/15 03:32:05;;;;;;;7.85;5.63;;;;;;;17.81;93.81;100394.03;4997791;28;20089;-71
2021/07/15 03:34:33;;;;;;;6.40;5.75;;;;;;;17.80;93.89;100398.53;5013721;28;20060;-70
2021/07/15 03:37:01;;;;;;;8.48;5.88;;;;;;;17.71;94.78;100400.19;5015346;28;20049;-69
2021/07/15 03:39:29;;;;;;;10.55;7.88;;;;;;;17.62;95.75;100402.84;5004327;28;20045;-72
2021/07/15 03:41:56;;;;;;;7.15;6.22;;;;;;;17.61;95.86;100401.19;5006998;28;20244;-69
2021/07/15 03:44:25;;;;;;;6.28;5.30;;;;;;;17.72;94.85;100393.88;5008579;28;20045;-69
2021/07/15 03:46:53;;;;;;;6.95;5.90;;;;;;;17.87;94.31;100391.63;5017946;28;20184;-68
2021/07/15 03:49:22;;;;;;;9.55;5.50;;;;;;;17.90;94.04;100388.69;4999857;28;20124;-68
2021/07/15 03:51:49;;;;;;;6.65;4.90;;;;;;;17.95;94.17;100393.56;5033456;28;20731;-68
2021/07/15 03:54:18;;;;;;;7.28;5.80;;;;;;;17.96;94.04;100388.09;5034157;28;20617;-68
2021/07/15 03:56:46;;;;;;;10.93;5.60;;;;;;;18.06;93.69;100374.78;5013029;28;20140;-68
2021/07/15 03:59:15;;;;;;;7.63;5.25;;;;;;;18.03;93.85;100375.06;5024577;28;20054;-69
2021/07/15 04:01:43;;;;;;;11.95;6.03;;;;;;;18.11;93.44;100372.53;5017049;28;20057;-69
2021/07/15 04:04:13;;;;;;;8.23;5.45;;;;;;;18.06;93.66;100384.59;5027261;28;20063;-67
2021/07/15 04:06:42;;;;;;;6.78;6.05;;;;;;;18.18;93.37;100396.75;5008413;28;20056;-69
2021/07/15 04:09:10;;;;;;;8.27;6.38;;;;;;;18.21;93.28;100407.13;5012779;28;20562;-69
2021/07/15 04:11:42;;;;;;;7.65;5.93;;;;;;;18.20;93.93;100408.94;5030222;28;20253;-69
2021/07/15 04:14:14;;;;;;;7.93;6.18;;;;;;;18.14;94.19;100403.34;5009393;28;20401;-69
2021/07/15 04:16:51;;;;;;;9.55;5.95;;;;;;;18.33;92.98;100400.63;5021727;28;20123;-69
2021/07/15 04:19:19;;;;;;;7.32;6.50;;;;;;;18.32;93.20;100398.94;5009683;28;20065;-68
2021/07/15 04:21:47;;;;;;;8.35;6.28;;;;;;;18.40;92.40;100404.38;4980568;28;20551;-69
2021/07/15 04:24:15;;;;;;;8.35;5.60;;;;;;;18.43;92.57;100405.94;5025320;28;20053;-69
2021/07/15 04:26:43;;;;;;;10.52;6.43;;;;;;;18.43;92.48;100412.09;5015317;28;20050;-68
2021/07/15 04:29:10;;;;;;;6.97;6.25;;;;;;;18.35;92.95;100414.63;5011115;28;20197;-70
2021/07/15 04:32:10;;;;;;;9.95;6.40;;;;;;;18.38;93.44;100426.84;5033048;28;20064;-69
2021/07/15 04:34:37;;;;;;;7.32;6.38;;;;;;;18.36;93.26;100413.66;4954151;28;20049;-69
2021/07/15 04:37:05;;;;;;;12.55;6.38;;;;;;;18.41;93.00;100403.38;5021737;28;20063;-69
2021/07/15 04:39:33;;;;;;;10.10;6.28;;;;;;;18.40;92.84;100399.06;5017189;28;20140;-69
2021/07/15 04:42:02;;;;;;;11.27;5.72;;;;;;;18.55;92.53;100412.75;5003599;28;20054;-71
2021/07/15 04:44:32;;;;;;;8.25;5.78;;;;;;;18.65;92.29;100415.38;5017806;28;20107;-69
2021/07/15 04:47:03;;;;;;;8.00;6.18;;;;;;;18.70;92.06;100410.47;5025970;28;20057;-68
2021/07/15 04:49:30;;;;;;;6.20;5.60;;;;;;;18.64;92.29;100416.34;5017684;28;20042;-68
2021/07/15 04:51:59;;;;;;;7.15;5.65;;;;;;;18.75;91.51;100418.84;5014660;28;20070;-70
2021/07/15 04:54:27;;;;;;;8.57;6.07;;;;;;;18.55;92.81;100425.22;5019342;28;20050;-69
2021/07/15 04:56:55;;;;;;;9.43;6.63;;;;;;;18.50;93.16;100425.66;4996590;28;20142;-69
2021/07/15 04:59:22;;;;;;;8.93;6.18;;;;;;;18.48;92.93;100428.47;5004976;28;20064;-69
2021/07/15 05:01:50;;;;;;;7.38;5.50;;;;;;;18.57;92.93;100425.94;5015284;28;20144;-69
2021/07/15 05:04:19;;;;;;;5.65;4.88;;;;;;;18.75;90.96;100426.03;5014415;28;20414;-70
2021/07/15 05:06:46;;;;;;;6.88;4.80;;;;;;;18.91;89.74;100424.41;5031792;28;20140;-69
2021/07/15 05:09:13;;;;;;;5.22;4.00;;;;;;;18.98;88.74;100429.97;5023957;28;20041;-68
2021/07/15 05:11:40;;;;;;;7.15;4.28;;;;;;;19.21;87.86;100428.53;5027269;28;20510;-69
2021/07/15 05:14:08;;;;;;;4.55;4.03;;;;;;;19.44;86.45;100425.44;5023855;28;20074;-69
2021/07/15 05:16:35;;;;;;;4.50;4.10;;;;;;;19.48;85.51;100424.13;4991035;28;20127;-69
2021/07/15 05:19:02;;;;;;;4.75;3.67;;;;;;;19.61;84.71;100431.81;5032894;28;20048;-68
2021/07/15 05:21:29;;;;;;;4.03;3.33;;;;;;;19.56;84.14;100428.72;5029970;28;20428;-71
2021/07/15 05:23:56;;;;;;;3.83;3.38;;;;;;;19.29;86.35;100418.97;4981856;28;20476;-68
2021/07/15 05:26:24;;;;;;;4.35;3.55;;;;;;;19.33;85.64;100426.50;5033618;28;20575;-69
2021/07/15 05:28:51;;;;;;;6.82;3.95;;;;;;;19.69;83.46;100421.19;5033785;28;20133;-68
2021/07/15 05:31:21;;;;;;;4.97;3.13;;;;;;;19.64;83.64;100431.50;5012298;28;20061;-71
2021/07/15 05:33:48;;;;;;;4.35;3.47;;;;;;;19.72;83.46;100443.09;5026637;28;20053;-68
2021/07/15 05:36:15;;;;;;;6.97;3.28;;;;;;;19.58;83.46;100430.22;5029776;28;20073;-70
2021/07/15 05:38:42;;;;;;;8.00;2.70;;;;;;;19.79;82.82;100443.31;5032788;28;20073;-69
2021/07/15 05:41:10;;;;;;;5.22;3.50;;;;;;;19.90;80.66;100436.88;5011798;28;20536;-69
2021/07/15 05:43:37;;;;;;;6.13;2.90;;;;;;;19.87;81.16;100443.38;5024752;28;20049;-69
2021/07/15 05:46:05;;;;;;;4.25;2.78;;;;;;;20.28;78.26;100446.34;4994075;28;20142;-69
2021/07/15 05:48:32;;;;;;;6.85;2.38;;;;;;;20.40;77.28;100438.91;5035116;28;20167;-70
2021/07/15 05:50:59;;;;;;;7.50;2.85;;;;;;;20.63;75.35;100442.72;5029423;28;20140;-69
2021/07/15 05:53:26;;;;;;;4.90;2.63;;;;;;;20.96;74.31;100445.53;5022185;28;20137;-70
2021/07/15 05:55:53;;;;;;;5.70;2.40;;;;;;;21.16;72.60;100456.78;5034511;28;20057;-69
2021/07/15 05:58:21;;;;;;;3.88;2.38;;;;;;;21.49;71.35;100447.88;5027366;28;20049;-70
2021/07/15 06:00:48;;;;;;;5.70;2.72;;;;;;;22.07;69.48;100442.53;5032051;28;20144;-70
2021/07/15 06:03:15;;;;;;;7.07;3.42;;;;;;;21.94;69.09;100445.72;5026045;28;20060;-68
2021/07/15 06:05:42;;;;;;;8.02;2.45;;;;;;;22.58;67.81;100438.56;5038217;28;20057;-70
2021/07/15 06:08:09;;;;;;;6.45;2.63;;;;;;;25.20;57.43;100438.06;5034113;28;20530;-69
2021/07/15 06:10:37;;;;;;;6.60;2.67;;;;;;;26.88;51.81;100425.72;5030985;28;20049;-69
2021/07/15 06:13:04;;;;;;;4.53;2.10;;;;;;;29.38;44.99;100420.31;5015218;28;20077;-69
2021/07/15 06:15:31;;;;;;;4.35;1.80;;;;;;;30.79;40.18;100427.00;5011850;28;20052;-69
2021/07/15 06:17:59;;;;;;;4.43;2.50;;;;;;;28.15;46.21;100435.75;5010972;28;20057;-68
2021/07/15 06:20:28;;;;;;;7.13;1.65;;;;;;;27.55;48.60;100442.97;5011197;28;20057;-69
2021/07/15 06:22:55;;;;;;;5.55;2.20;;;;;;;27.08;48.70;100450.94;5010199;28;20051;-70
2021/07/15 06:25:23;;;;;;;2.55;1.85;;;;;;;26.59;49.32;100448.44;5026435;28;20123;-69
2021/07/15 06:27:50;;;;;;;2.30;1.42;;;;;;;25.58;52.07;100437.88;5025694;28;20053;-69
2021/07/15 06:30:17;;;;;;;8.65;2.67;;;;;;;25.69;51.92;100442.72;5034887;28;20136;-70
2021/07/15 06:32:44;;;;;;;4.05;1.95;;;;;;;26.61;49.33;100436.38;5026918;28;20176;-70
2021/07/15 06:35:15;;;;;;;4.55;1.83;;;;;;;28.56;44.62;100429.25;5030425;28;20140;-70
2021/07/15 06:37:45;;;;;;;2.95;2.17;;;;;;;31.18;39.25;100425.66;5008202;28;20054;-68
2021/07/15 06:40:13;;;;;;;6.15;2.22;;;;;;;32.95;34.91;100429.34;5014797;28;20084;-69
2021/07/15 06:42:40;;;;;;;2.85;1.67;;;;;;;32.60;35.44;100434.88;5024710;28;20385;-70
2021/07/15 06:45:08;;;;;;;10.88;2.40;;;;;;;32.82;35.15;100440.50;5029235;28;20615;-69
2021/07/15 06:47:36;;;;;;;4.88;2.30;;;;;;;33.74;34.01;100457.59;5019659;28;20635;-69
2021/07/15 06:50:08;;;;;;;7.03;2.88;;;;;;;33.54;34.46;100461.84;5022335;28;20178;-70
2021/07/15 06:52:36;;;;;;;7.53;2.20;;;;;;;34.16;32.59;100461.81;5016456;28;20064;-70
2021/07/15 06:55:04;;;;;;;6.05;2.05;;;;;;;32.18;35.74;100460.34;5031776;28;20148;-69
2021/07/15 06:57:34;;;;;;;4.68;2.13;;;;;;;30.97;37.62;100469.66;4997736;28;20050;-70
2021/07/15 07:00:07;;;;;;;5.85;2.20;;;;;;;28.10;44.36;100468.84;5025449;28;20070;-70
2021/07/15 07:02:39;;;;;;;3.20;1.73;;;;;;;27.77;45.68;100466.97;5030038;28;20079;-71
2021/07/15 07:05:08;;;;;;;4.25;2.10;;;;;;;26.89;48.18;100467.91;5028052;28;20065;-70
2021/07/15 07:07:35;;;;;;;19.45;2.28;;;;;;;25.90;50.66;100476.16;5016253;28;20512;-70
2021/07/15 07:10:11;;;;;;;7.18;1.70;;;;;;;26.51;50.06;100471.84;4984048;28;20048;-69
2021/07/15 07:12:38;;;;;;;5.93;2.05;;;;;;;28.39;45.62;100464.88;5036312;28;20074;-70
2021/07/15 07:15:07;;;;;;;3.08;1.50;;;;;;;28.13;45.65;100456.75;5002051;28;20137;-69
2021/07/15 07:17:34;;;;;;;2.50;1.83;;;;;;;26.89;48.26;100459.81;5031102;28;20135;-69
2021/07/15 07:20:03;;;;;;;3.92;1.92;;;;;;;26.76;49.13;100460.56;5010096;28;20530;-69
2021/07/15 07:22:30;;;;;;;4.80;1.85;;;;;;;26.75;49.36;100450.81;5030343;28;20589;-70
2021/07/15 07:24:57;;;;;;;8.68;2.20;;;;;;;26.96;49.23;100445.28;5008808;28;20053;-69
2021/07/15 07:27:24;;;;;;;3.78;2.10;;;;;;;27.44;47.46;100450.66;5008120;28;20636;-70
2021/07/15 07:29:52;;;;;;;4.70;2.00;;;;;;;27.36;47.73;100455.41;5001067;28;20433;-70
2021/07/15 07:32:19;;;;;;;6.28;2.25;;;;;;;27.39;46.63;100449.63;4991366;28;20937;-70
2021/07/15 07:34:46;;;;;;;6.88;1.60;;;;;;;28.24;44.60;100443.44;5015588;28;20057;-69
2021/07/15 07:37:13;;;;;;;5.43;1.70;;;;;;;27.70;45.17;100449.88;5024604;28;20052;-70
2021/07/15 07:39:40;;;;;;;3.58;1.70;;;;;;;30.12;40.44;100453.16;5014236;28;20046;-70
2021/07/15 07:42:08;;;;;;;13.25;2.30;;;;;;;32.84;35.73;100452.00;5024983;28;20136;-70
2021/07/15 07:44:35;;;;;;;8.48;2.05;;;;;;;34.70;32.14;100437.44;5033829;28;20148;-69
2021/07/15 07:47:02;;;;;;;5.55;1.92;;;;;;;34.23;32.61;100446.09;5030679;28;20077;-69
2021/07/15 07:49:30;;;;;;;5.20;1.90;;;;;;;32.36;34.99;100442.22;5031203;28;20045;-71
2021/07/15 07:51:59;;;;;;;3.83;2.78;;;;;;;32.66;34.98;100442.94;5019529;28;20125;-70
2021/07/15 07:54:26;;;;;;;4.00;1.75;;;;;;;32.01;35.93;100448.50;5022084;28;20506;-69
2021/07/15 07:56:54;;;;;;;2.65;1.65;;;;;;;31.01;37.72;100451.84;5030267;28;20289;-70
2021/07/15 07:59:22;;;;;;;5.05;1.55;;;;;;;32.50;35.15;100447.22;5018734;28;20045;-70
2021/07/15 08:01:49;;;;;;;3.17;1.60;;;;;;;35.43;30.59;100443.47;5036164;28;20068;-68
2021/07/15 08:04:16;;;;;;;5.47;1.88;;;;;;;36.10;29.35;100453.94;5032767;28;20464;-70
2021/07/15 08:06:45;;;;;;;4.00;2.08;;;;;;;34.48;31.35;100453.84;5031098;28;20061;-69
2021/07/15 08:09:13;;;;;;;9.90;2.05;;;;;;;36.03;29.31;100450.63;5033455;28;20051;-70
2021/07/15 08:11:46;;;;;;;7.80;1.55;;;;;;;34.55;31.51;100440.00;5028408;28;20063;-70
2021/07/15 08:14:13;;;;;;;2.38;1.77;;;;;;;33.45;33.79;100451.34;5013416;28;20181;-70
2021/07/15 08:16:40;;;;;;;5.50;2.13;;;;;;;32.96;34.78;100444.63;5007736;28;20053;-69
2021/07/15 08:19:09;;;;;;;9.68;2.00;;;;;;;30.26;38.86;100447.44;5010462;28;20141;-69
2021/07/15 08:21:36;;;;;;;7.50;1.60;;;;;;;29.61;41.05;100443.34;5026579;28;20053;-70
2021/07/15 08:24:04;;;;;;;5.43;1.63;;;;;;;29.48;41.09;100441.53;5026368;28;20140;-69
2021/07/15 08:26:31;;;;;;;4.63;1.80;;;;;;;27.94;44.37;100434.91;4997559;28;20053;-69
2021/07/15 08:28:58;;;;;;;8.27;2.90;;;;;;;27.98;45.12;100433.47;5025116;28;20399;-70
2021/07/15 08:31:25;;;;;;;13.10;2.63;;;;;;;27.84;45.63;100441.81;4998177;28;20045;-70
2021/07/15 08:33:52;;;;;;;8.20;2.05;;;;;;;29.75;41.33;100443.03;5007972;28;20045;-69
2021/07/15 08:36:20;;;;;;;12.65;2.30;;;;;;;30.30;40.10;100445.09;5032344;28;20482;-70
2021/07/15 08:38:47;;;;;;;6.82;1.30;;;;;;;30.22;40.85;100448.94;5012607;28;20077;-69
2021/07/15 08:41:14;;;;;;;4.30;1.40;;;;;;;29.84;41.86;100449.03;5011740;28;20124;-69
2021/07/15 08:43:44;;;;;;;4.78;1.60;;;;;;;29.56;42.57;100451.34;5006861;28;20420;-71
2021/07/15 08:46:13;;;;;;;3.17;1.10;;;;;;;29.38;42.91;100438.47;5028600;28;20140;-70
2021/07/15 08:48:40;;;;;;;2.47;1.15;;;;;;;29.12;43.44;100440.28;5029373;28;20030;-70
2021/07/15 08:51:09;;;;;;;6.57;1.35;;;;;;;29.24;43.30;100443.97;5025021;28;20049;-69
2021/07/15 08:53:36;;;;;;;2.50;1.50;;;;;;;28.99;44.44;100437.63;5020409;28;20050;-70
2021/07/15 08:58:50;;;;;;;1.88;1.48;;;;;;;28.51;44.66;100446.13;5005309;28;20049;-70
2021/07/15 09:01:17;;;;;;;3.72;1.63;;;;;;;28.50;44.98;100448.00;5023753;28;20063;-70
2021/07/15 09:03:44;;;;;;;3.30;1.48;;;;;;;28.90;44.10;100450.56;4997139;28;20049;-70
2021/07/15 09:06:13;;;;;;;9.07;1.58;;;;;;;28.52;44.36;100459.44;5003938;28;20081;-69
2021/07/15 09:08:40;;;;;;;2.10;1.42;;;;;;;28.58;44.95;100465.88;5029363;28;20099;-70
2021/07/15 09:11:07;;;;;;;4.88;1.63;;;;;;;28.75;44.37;100475.22;5007021;28;20428;-70
2021/07/15 09:13:34;;;;;;;5.57;1.58;;;;;;;29.04;44.56;100480.34;5011098;28;20117;-70
2021/07/15 09:16:10;;;;;;;2.60;1.73;;;;;;;28.58;44.19;100473.19;5022254;28;20148;-70
2021/07/15 09:18:56;;;;;;;15.68;2.92;;;;;;;28.09;45.64;100472.59;5018573;28;20046;-70
2021/07/15 09:21:32;;;;;;;8.82;2.78;;;;;;;28.02;45.68;100477.19;5022812;28;20095;-70
2021/07/15 09:24:01;;;;;;;3.65;1.75;;;;;;;28.29;44.46;100471.75;5028143;28;20058;-70
2021/07/15 09:26:30;;;;;;;19.35;3.00;;;;;;;28.00;45.25;100481.94;5007787;28;20072;-72
2021/07/15 09:29:13;;;;;;;11.68;1.77;;;;;;;27.77;45.33;100482.34;5029106;28;20085;-70
2021/07/15 09:31:51;;;;;;;7.85;1.92;;;;;;;27.82;45.70;100482.56;4985488;28;20435;-70
2021/07/15 09:34:24;;;;;;;3.90;1.38;;;;;;;27.23;47.12;100472.44;5026366;28;20049;-70
2021/07/15 09:36:53;;;;;;;2.97;1.50;;;;;;;27.36;46.79;100480.56;5025722;28;20071;-70
2021/07/15 09:39:25;;;;;;;3.80;1.40;;;;;;;27.35;46.65;100475.38;5030563;28;20069;-68
2021/07/15 09:42:05;;;;;;;2.80;1.50;;;;;;;26.72;47.34;100470.09;5010406;28;20227;-69
2021/07/15 09:44:35;;;;;;;2.42;1.33;;;;;;;27.12;46.74;100473.84;5028359;28;20050;-70
2021/07/15 09:47:05;;;;;;;10.52;2.67;;;;;;;27.67;46.73;100485.44;5022689;28;20041;-71
2021/07/15 09:49:34;;;;;;;6.00;1.63;;;;;;;28.00;46.11;100481.94;5016765;28;20121;-69
2021/07/15 09:52:03;;;;;;;6.53;1.65;;;;;;;28.23;46.68;100485.09;5011959;28;20048;-69
2021/07/15 09:54:30;;;;;;;4.45;1.63;;;;;;;27.46;46.85;100488.28;5017558;28;20152;-70
2021/07/15 09:57:00;;;;;;;4.05;1.73;;;;;;;27.22;47.19;100479.72;5031808;28;20091;-70
2021/07/15 09:59:47;;;;;;;3.10;1.60;;;;;;;27.06;47.10;100480.03;4989599;28;20128;-69
2021/07/15 10:02:30;;;;;;;5.25;2.40;;;;;;;28.18;45.10;100479.44;5034683;28;20172;-70
2021/07/15 10:04:57;;;;;;;3.90;1.80;;;;;;;28.52;44.31;100485.69;5020902;28;20057;-69
2021/07/15 10:07:25;;;;;;;6.32;1.63;;;;;;;28.55;44.38;100470.88;5023210;28;20075;-69
2021/07/15 10:10:16;;;;;;;10.73;1.77;;;;;;;28.24;44.96;100475.91;5018954;28;20049;-69
2021/07/15 10:12:43;;;;;;;3.05;1.90;;;;;;;27.59;45.62;100471.28;5005489;28;20057;-70
2021/07/15 10:15:12;;;;;;;2.47;1.60;;;;;;;27.83;44.83;100469.88;5022788;28;20056;-69
2021/07/15 10:17:43;;;;;;;7.30;2.42;;;;;;;28.19;43.63;100467.59;5027721;28;20077;-70
2021/07/15 10:20:18;;;;;;;3.83;1.60;;;;;;;27.79;46.02;100469.47;5012543;28;20087;-69
2021/07/15 10:22:53;;;;;;;4.68;2.30;;;;;;;27.63;44.92;100472.53;5022822;28;20220;-70
2021/07/15 10:25:21;;;;;;;5.75;2.22;;;;;;;27.11;46.12;100471.34;5034559;28;20400;-70
2021/07/15 10:27:48;;;;;;;6.03;2.30;;;;;;;27.35;45.88;100468.09;5015801;28;20138;-69
2021/07/15 10:30:16;;;;;;;8.52;2.03;;;;;;;28.07;43.61;100469.25;5023025;28;20045;-69
2021/07/15 10:32:44;;;;;;;5.65;2.30;;;;;;;28.75;42.65;100464.38;5033086;28;20059;-70
2021/07/15 10:35:17;;;;;;;4.72;2.78;;;;;;;29.06;42.89;100472.84;5019972;28;20152;-70
2021/07/15 10:37:47;;;;;;;4.38;2.28;;;;;;;27.91;44.08;100475.09;5016212;28;20053;-69
2021/07/15 10:40:16;;;;;;;5.25;2.42;;;;;;;28.48;43.07;100473.63;5016006;28;20053;-69
2021/07/15 10:42:43;;;;;;;2.60;2.08;;;;;;;28.37;43.97;100480.53;5019284;28;20558;-69
2021/07/15 10:45:11;;;;;;;7.15;2.42;;;;;;;28.75;43.59;100475.22;5036261;28;20061;-72
2021/07/15 10:47:39;;;;;;;7.00;2.28;;;;;;;28.84;42.98;100480.41;5020089;28;20094;-69
2021/07/15 10:50:08;;;;;;;3.92;2.30;;;;;;;28.46;42.94;100481.97;5014554;28;20104;-69
2021/07/15 10:52:36;;;;;;;2.33;2.13;;;;;;;28.72;43.92;100478.34;5029671;28;20053;-70
2021/07/15 10:55:05;;;;;;;4.28;1.85;;;;;;;28.83;43.58;100478.75;5004994;28;20367;-69
2021/07/15 10:57:33;;;;;;;7.00;2.08;;;;;;;29.53;41.69;100482.38;5009186;28;20116;-73
2021/07/15 11:00:27;;;;;;;4.72;3.03;;;;;;;29.85;40.46;100480.53;5032686;28;20050;-71
2021/07/15 11:03:13;;;;;;;2.80;2.15;;;;;;;29.93;40.87;100482.16;5022948;28;20204;-69
2021/07/15 11:05:58;;;;;;;3.78;1.67;;;;;;;29.77;41.31;100484.38;5017110;28;20223;-69
2021/07/15 11:08:43;;;;;;;3.08;1.92;;;;;;;29.44;42.11;100479.09;5026567;28;20409;-70
2021/07/15 11:11:12;;;;;;;1.83;1.55;;;;;;;29.05;42.82;100473.91;5013080;28;20093;-69
2021/07/15 11:13:39;;;;;;;7.80;2.22;;;;;;;28.94;43.22;100478.06;5013319;28;20064;-69
2021/07/15 11:16:08;;;;;;;5.97;2.35;;;;;;;28.76;43.76;100478.75;5008337;28;20140;-70
2021/07/15 11:18:43;;;;;;;8.63;2.28;;;;;;;29.12;43.14;100470.09;5031330;28;20523;-69
2021/07/15 11:21:26;;;;;;;8.05;2.80;;;;;;;28.49;43.38;100480.69;5010224;28;20453;-70
2021/07/15 11:23:54;;;;;;;8.00;2.45;;;;;;;28.80;43.84;100484.59;5026657;28;20128;-70
2021/07/15 11:26:28;;;;;;;2.88;2.40;;;;;;;28.87;42.64;100477.28;5032673;28;20132;-69
2021/07/15 11:28:55;;;;;;;3.15;2.10;;;;;;;29.12;41.75;100480.13;5008358;28;20067;-69
2021/07/15 11:31:45;;;;;;;4.03;2.08;;;;;;;28.77;43.65;100483.13;5011196;28;20077;-70
2021/07/15 11:34:40;;;;;;;5.85;2.47;;;;;;;28.41;44.64;100476.31;5029305;28;20276;-69
2021/07/15 11:37:25;;;;;;;2.92;2.60;;;;;;;28.20;44.11;100477.38;5023133;28;20053;-70
2021/07/15 11:39:53;;;;;;;;;;;;;;;29.22;42.21;100472.34;5020844;28;20050;-69